createdAt,value
2023-05-18T00:05:07.039Z,1.90
2023-05-18T00:10:28.141Z,2.00
2023-05-18T00:15:49.576Z,2.08
2023-05-18T00:21:10.309Z,1.65
2023-05-18T00:26:31.296Z,1.45
2023-05-18T00:31:52.449Z,2.10
2023-05-18T00:37:13.892Z,1.80
2023-05-18T00:42:34.834Z,2.47
2023-05-18T00:47:55.886Z,2.65
2023-05-18T00:53:17.156Z,2.42
2023-05-18T00:58:39.732Z,2.22
2023-05-18T01:04:04.151Z,2.60
2023-05-18T01:09:26.465Z,2.53
2023-05-18T01:15:11.759Z,3.08
2023-05-18T01:20:41.524Z,2.72
2023-05-18T01:26:25.164Z,2.80
2023-05-18T01:31:46.779Z,2.83
2023-05-18T01:37:07.816Z,2.30
2023-05-18T01:42:30.835Z,2.33
2023-05-18T01:47:59.260Z,3.05
2023-05-18T01:53:38.261Z,2.38
2023-05-18T01:59:00.319Z,2.35
2023-05-18T02:04:21.373Z,2.28
2023-05-18T02:09:43.008Z,2.35
2023-05-18T02:15:05.747Z,2.60
2023-05-18T02:20:28.942Z,2.80
2023-05-18T02:25:51.555Z,2.45
2023-05-18T02:31:13.111Z,3.05
2023-05-18T02:36:40.443Z,3.40
2023-05-18T02:42:02.405Z,2.75
2023-05-18T02:47:23.681Z,2.80
2023-05-18T02:52:50.028Z,2.72
2023-05-18T02:58:13.812Z,2.50
2023-05-18T03:04:01.117Z,2.28
2023-05-18T03:09:22.485Z,3.08
2023-05-18T03:14:47.564Z,2.60
2023-05-18T03:20:14.547Z,2.60
2023-05-18T03:25:37.470Z,2.83
2023-05-18T03:30:59.916Z,3.13
2023-05-18T03:36:23.149Z,2.67
2023-05-18T03:41:44.439Z,2.83
2023-05-18T03:47:05.501Z,2.20
2023-05-18T03:52:26.612Z,2.30
2023-05-18T03:57:49.019Z,2.88
2023-05-18T04:03:14.823Z,2.25
2023-05-18T04:08:36.910Z,2.78
2023-05-18T04:14:01.167Z,2.53
2023-05-18T04:19:22.893Z,2.65
2023-05-18T04:24:47.525Z,2.10
2023-05-18T04:30:11.590Z,2.83
2023-05-18T04:35:36.281Z,2.92
2023-05-18T04:41:00.505Z,2.45
2023-05-18T04:46:24.785Z,2.92
2023-05-18T04:51:47.045Z,2.85
2023-05-18T04:57:08.450Z,2.58
2023-05-18T05:02:29.813Z,3.33
2023-05-18T05:07:54.768Z,2.97
2023-05-18T05:13:16.059Z,2.35
2023-05-18T05:18:37.153Z,3.05
2023-05-18T05:23:58.797Z,3.00
2023-05-18T05:29:21.783Z,2.85
2023-05-18T05:34:46.876Z,3.10
2023-05-18T05:40:10.253Z,2.72
2023-05-18T05:45:42.992Z,3.17
2023-05-18T05:51:04.274Z,3.35
2023-05-18T05:56:26.669Z,2.97
2023-05-18T06:01:48.095Z,2.65
2023-05-18T06:07:09.729Z,2.00
2023-05-18T06:12:31.717Z,1.70
2023-05-18T06:17:52.923Z,2.80
2023-05-18T06:23:14.151Z,2.55
2023-05-18T06:28:50.342Z,2.05
2023-05-18T06:34:25.555Z,1.95
2023-05-18T06:39:46.297Z,2.38
2023-05-18T06:45:07.973Z,2.70
2023-05-18T06:50:43.726Z,1.85
2023-05-18T06:56:05.059Z,2.00
2023-05-18T07:01:26.640Z,1.60
2023-05-18T07:06:53.770Z,2.28
2023-05-18T07:12:14.913Z,2.53
2023-05-18T07:17:36.286Z,2.70
2023-05-18T07:22:57.559Z,2.05
2023-05-18T07:28:19.135Z,1.92
2023-05-18T07:33:41.177Z,1.77
2023-05-18T07:39:02.090Z,1.70
2023-05-18T07:44:23.068Z,2.08
2023-05-18T07:49:44.596Z,2.05
2023-05-18T07:55:06.040Z,1.73
2023-05-18T08:00:28.097Z,1.92
2023-05-18T08:05:49.017Z,2.38
2023-05-18T08:11:10.076Z,1.98
2023-05-18T08:16:34.762Z,1.52
2023-05-18T08:21:55.386Z,1.80
2023-05-18T08:27:16.284Z,1.90
2023-05-18T08:32:37.713Z,2.10
2023-05-18T08:37:59.774Z,2.22
2023-05-18T08:43:23.961Z,2.70
2023-05-18T08:48:47.213Z,2.20
2023-05-18T08:54:10.540Z,2.00
2023-05-18T08:59:36.685Z,2.25
2023-05-18T09:04:59.309Z,2.42
2023-05-18T09:10:20.973Z,2.60
2023-05-18T09:15:42.088Z,2.47
2023-05-18T09:21:03.103Z,2.13
2023-05-18T09:26:24.172Z,1.95
2023-05-18T09:31:46.603Z,2.63
2023-05-18T09:37:08.175Z,2.53
2023-05-18T09:42:36.932Z,2.22
2023-05-18T09:47:58.125Z,1.67
2023-05-18T09:53:19.600Z,1.75
2023-05-18T09:58:41.172Z,2.28
2023-05-18T10:04:06.465Z,1.48
2023-05-18T10:09:27.647Z,1.83
2023-05-18T10:14:49.667Z,2.15
2023-05-18T10:20:11.290Z,1.75
2023-05-18T10:25:35.406Z,2.05
2023-05-18T10:30:59.542Z,2.30
2023-05-18T10:36:22.300Z,1.55
2023-05-18T10:41:46.684Z,1.70
2023-05-18T10:47:08.736Z,2.38
2023-05-18T10:52:36.753Z,1.80
2023-05-18T10:58:07.093Z,2.40
2023-05-18T11:03:28.893Z,2.30
2023-05-18T11:08:50.972Z,2.00
2023-05-18T11:14:12.845Z,1.83
2023-05-18T11:19:33.636Z,2.17
2023-05-18T11:24:54.542Z,1.60
2023-05-18T11:30:45.781Z,1.92
2023-05-18T11:36:11.875Z,2.00
2023-05-18T11:41:39.122Z,1.90
2023-05-18T11:47:04.263Z,2.15
2023-05-18T11:52:25.897Z,1.48
2023-05-18T11:57:53.228Z,1.80
2023-05-18T12:03:14.783Z,2.05
2023-05-18T12:08:37.544Z,1.60
2023-05-18T12:13:59.930Z,1.85
2023-05-18T12:19:22.746Z,2.03
2023-05-18T12:24:44.422Z,1.77
2023-05-18T12:30:09.244Z,2.20
2023-05-18T12:35:31.519Z,1.83
2023-05-18T12:40:54.355Z,2.30
2023-05-18T12:46:15.283Z,1.95
2023-05-18T12:51:37.789Z,1.77
2023-05-18T12:57:02.450Z,1.80
2023-05-18T13:02:35.785Z,2.38
2023-05-18T13:07:57.151Z,1.98
2023-05-18T13:13:18.439Z,1.95
2023-05-18T13:18:46.958Z,2.00
2023-05-18T13:24:08.290Z,1.35
2023-05-18T13:29:29.894Z,1.35
2023-05-18T13:34:52.541Z,2.15
2023-05-18T13:40:13.903Z,2.05
2023-05-18T13:45:36.321Z,1.40
2023-05-18T13:50:57.787Z,1.40
2023-05-18T13:56:18.742Z,1.52
2023-05-18T14:01:42.422Z,1.92
2023-05-18T14:07:04.201Z,1.67
2023-05-18T14:12:24.940Z,1.58
2023-05-18T14:17:46.207Z,1.45
2023-05-18T14:23:08.975Z,1.90
2023-05-18T14:28:31.076Z,1.60
2023-05-18T14:33:51.983Z,1.60
2023-05-18T14:39:13.035Z,1.55
2023-05-18T14:44:34.493Z,1.58
2023-05-18T14:49:55.268Z,1.60
2023-05-18T14:55:16.431Z,1.55
2023-05-18T15:00:37.347Z,1.52
2023-05-18T15:05:58.471Z,1.60
2023-05-18T15:11:20.282Z,1.60
2023-05-18T15:16:42.566Z,0.98
2023-05-18T15:22:04.087Z,1.05
2023-05-18T15:27:25.383Z,1.40
2023-05-18T15:32:46.394Z,1.25
2023-05-18T15:38:07.184Z,1.20
2023-05-18T15:43:29.966Z,1.35
2023-05-18T15:48:54.071Z,1.27
2023-05-18T15:54:14.902Z,0.85
2023-05-18T15:59:35.814Z,1.35
2023-05-18T16:04:56.932Z,1.40
2023-05-18T16:10:18.702Z,1.38
2023-05-18T16:15:39.680Z,1.42
2023-05-18T16:21:00.576Z,1.23
2023-05-18T16:26:22.161Z,1.70
2023-05-18T16:31:43.314Z,1.70
2023-05-18T16:37:04.151Z,1.40
2023-05-18T16:42:26.008Z,1.30
2023-05-18T16:47:47.205Z,1.55
2023-05-18T16:53:07.832Z,1.25
2023-05-18T16:58:28.803Z,1.33
2023-05-18T17:03:50.438Z,1.52
2023-05-18T17:09:11.328Z,1.50
2023-05-18T17:14:32.177Z,2.10
2023-05-18T17:19:53.069Z,1.15
2023-05-18T17:25:14.075Z,1.38
2023-05-18T17:30:35.171Z,1.20
2023-05-18T17:35:56.296Z,1.27
2023-05-18T17:41:17.038Z,1.33
2023-05-18T17:46:38.083Z,1.10
2023-05-18T17:51:58.879Z,1.08
2023-05-18T17:57:19.913Z,1.50
2023-05-18T18:02:41.602Z,1.60
2023-05-18T18:08:02.742Z,1.58
2023-05-18T18:13:23.443Z,1.35
2023-05-18T18:18:45.010Z,1.13
2023-05-18T18:24:06.567Z,1.40
2023-05-18T18:29:29.882Z,2.25
2023-05-18T18:34:51.212Z,1.55
2023-05-18T18:40:12.536Z,1.70
2023-05-18T18:45:33.392Z,1.83
2023-05-18T18:50:54.080Z,1.33
2023-05-18T18:56:16.054Z,1.70
2023-05-18T19:01:37.284Z,1.45
2023-05-18T19:07:03.372Z,2.00
2023-05-18T19:12:24.462Z,2.17
2023-05-18T19:17:52.224Z,1.50
2023-05-18T19:23:13.394Z,1.80
2023-05-18T19:28:34.195Z,1.83
2023-05-18T19:33:55.239Z,1.77
2023-05-18T19:39:17.645Z,1.40
2023-05-18T19:44:38.954Z,2.05
2023-05-18T19:49:59.765Z,2.05
2023-05-18T19:55:21.177Z,2.38
2023-05-18T20:00:42.349Z,1.88
2023-05-18T20:06:04.319Z,2.72
2023-05-18T20:11:26.055Z,4.15
2023-05-18T20:16:46.894Z,2.13
2023-05-18T20:22:15.602Z,2.25
2023-05-18T20:27:37.196Z,2.03
2023-05-18T20:33:03.823Z,1.88
2023-05-18T20:38:26.051Z,1.90
2023-05-18T20:43:47.187Z,3.13
2023-05-18T20:49:09.378Z,1.90
2023-05-18T20:54:31.446Z,2.08
2023-05-18T20:59:52.679Z,2.15
2023-05-18T21:05:14.000Z,1.70
2023-05-18T21:10:34.826Z,1.77
2023-05-18T21:15:56.552Z,1.70
2023-05-18T21:21:17.382Z,1.92
2023-05-18T21:26:38.272Z,1.50
2023-05-18T21:31:59.073Z,2.05
2023-05-18T21:37:21.145Z,2.03
2023-05-18T21:42:45.349Z,1.33
2023-05-18T21:48:06.956Z,1.70
2023-05-18T21:53:27.864Z,1.95
2023-05-18T21:58:48.639Z,1.50
2023-05-18T22:04:09.490Z,1.60
2023-05-18T22:09:30.462Z,1.63
2023-05-18T22:14:51.287Z,1.67
2023-05-18T22:20:12.177Z,2.00
2023-05-18T22:25:33.056Z,1.50
2023-05-18T22:30:53.767Z,1.60
2023-05-18T22:36:14.901Z,1.52
2023-05-18T22:41:35.828Z,1.90
2023-05-18T22:46:56.714Z,1.63
2023-05-18T22:52:20.626Z,2.10
2023-05-18T22:57:42.633Z,1.73
2023-05-18T23:03:03.673Z,1.85
2023-05-18T23:08:24.625Z,2.05
2023-05-18T23:13:46.052Z,1.83
2023-05-18T23:19:09.588Z,1.70
2023-05-18T23:24:30.649Z,2.00
2023-05-18T23:29:53.012Z,1.83
2023-05-18T23:35:15.116Z,1.92
2023-05-18T23:40:36.119Z,2.40
2023-05-18T23:45:59.757Z,1.98
2023-05-18T23:51:21.667Z,2.38
2023-05-18T23:56:42.923Z,2.20
